Bright Hope — HPTM — position and weather

sailwx.info

Track history (hours):
 
Tides and Currents Weather Stations Pressure Air Temp Water Temp Dewpoint Dewpoint Depression Visibility Wind Speed Wind Dir Waves Ship Positions

Bright Hope

Last reported at 2017-Aug-14 21:25 UTC. Time now 2017-Aug-21 06:33 UTC.
Position N 01°17' E 103°21'.

Length 170 m; draft 9.7 m.

Type: Cargo ship. MMSI: 371117000.

Date/timePositionNaut miles runAvg speedWind from/ knotsBaromVisibWave heightAir tempDewpointWater temp
2017-Aug-14 21:25N 01°17' E 103°21'910.1
2017-Aug-14 20:33N 01°13' E 103°29'010.2
2017-Aug-14 20:30N 01°13' E 103°30'510.4
2017-Aug-14 20:01N 01°12' E 103°35'510.4
2017-Aug-14 19:30N 01°11' E 103°40'510.5
2017-Aug-14 19:00N 01°09' E 103°45'510.5
2017-Aug-14 18:30N 01°11' E 103°49'510.6
2017-Aug-14 18:00N 01°13' E 103°54'4 6.5
2017-Aug-14 17:28N 01°16' E 103°57'2 4.8
2017-Aug-14 16:59N 01°16' E 103°55'0 0.4
2017-Aug-14 16:18N 01°17' E 103°54'0 0.0
2017-Aug-14 15:51N 01°17' E 103°54'0 0.0
2017-Aug-14 15:27N 01°17' E 103°54'0 0.0
2017-Aug-14 13:54N 01°17' E 103°54'0 0.2
2017-Aug-14 13:30N 01°17' E 103°54'0 0.0
2017-Aug-14 13:00N 01°17' E 103°54'0 0.0
2017-Aug-14 12:30N 01°17' E 103°54'0 0.0
2017-Aug-14 11:24N 01°17' E 103°54'0 0.0
2017-Aug-14 10:57N 01°17' E 103°54'0 0.0
2017-Aug-14 10:30N 01°17' E 103°54'0 0.0
2017-Aug-14 09:54N 01°17' E 103°54'0 0.1
2017-Aug-14 09:15N 01°17' E 103°54'0 0.0
2017-Aug-14 08:54N 01°17' E 103°54'0 0.0
2017-Aug-14 08:24N 01°17' E 103°54'0 0.0
2017-Aug-14 07:54N 01°17' E 103°54'0 0.0
2017-Aug-14 06:34N 01°17' E 103°54'0 0.3
2017-Aug-14 06:30N 01°17' E 103°54'1 1.3
2017-Aug-14 06:00N 01°16' E 103°55'2 5.0
2017-Aug-14 05:30N 01°14' E 103°54'3 5.8
2017-Aug-14 04:59N 01°15' E 103°57'3 6.5
2017-Aug-14 04:30N 01°16' E 104°00'  
2017-Aug-11 18:21S 04°57' E 111°51'411.2
2017-Aug-11 17:59S 04°58' E 111°55'5911.3
2017-Aug-11 12:44S 05°24' E 112°48'  
Track history (hours):
 
Tides and Currents Weather Stations Pressure Air Temp Water Temp Dewpoint Dewpoint Depression Visibility Wind Speed Wind Dir Waves Ship Positions

Bright Hope

Last reported at 2017-Aug-14 21:25 UTC. Time now 2017-Aug-21 06:33 UTC.
Position N 01°17' E 103°21'.

Length 170 m; draft 9.7 m.

Type: Cargo ship. MMSI: 371117000.

Date/timePositionNaut miles runAvg speedWind from/ knotsBaromVisibWave heightAir tempDewpointWater temp
2017-Aug-14 21:25N 01°17' E 103°21'910.1
2017-Aug-14 20:33N 01°13' E 103°29'010.2
2017-Aug-14 20:30N 01°13' E 103°30'510.4
2017-Aug-14 20:01N 01°12' E 103°35'510.4
2017-Aug-14 19:30N 01°11' E 103°40'510.5
2017-Aug-14 19:00N 01°09' E 103°45'510.5
2017-Aug-14 18:30N 01°11' E 103°49'510.6
2017-Aug-14 18:00N 01°13' E 103°54'4 6.5
2017-Aug-14 17:28N 01°16' E 103°57'2 4.8
2017-Aug-14 16:59N 01°16' E 103°55'0 0.4
2017-Aug-14 16:18N 01°17' E 103°54'0 0.0
2017-Aug-14 15:51N 01°17' E 103°54'0 0.0
2017-Aug-14 15:27N 01°17' E 103°54'0 0.0
2017-Aug-14 13:54N 01°17' E 103°54'0 0.2
2017-Aug-14 13:30N 01°17' E 103°54'0 0.0
2017-Aug-14 13:00N 01°17' E 103°54'0 0.0
2017-Aug-14 12:30N 01°17' E 103°54'0 0.0
2017-Aug-14 11:24N 01°17' E 103°54'0 0.0
2017-Aug-14 10:57N 01°17' E 103°54'0 0.0
2017-Aug-14 10:30N 01°17' E 103°54'0 0.0
2017-Aug-14 09:54N 01°17' E 103°54'0 0.1
2017-Aug-14 09:15N 01°17' E 103°54'0 0.0
2017-Aug-14 08:54N 01°17' E 103°54'0 0.0
2017-Aug-14 08:24N 01°17' E 103°54'0 0.0
2017-Aug-14 07:54N 01°17' E 103°54'0 0.0
2017-Aug-14 06:34N 01°17' E 103°54'0 0.3
2017-Aug-14 06:30N 01°17' E 103°54'1 1.3
2017-Aug-14 06:00N 01°16' E 103°55'2 5.0
2017-Aug-14 05:30N 01°14' E 103°54'3 5.8
2017-Aug-14 04:59N 01°15' E 103°57'3 6.5
2017-Aug-14 04:30N 01°16' E 104°00'  
2017-Aug-11 18:21S 04°57' E 111°51'411.2
2017-Aug-11 17:59S 04°58' E 111°55'5911.3
2017-Aug-11 12:44S 05°24' E 112°48'  

Dump ship's entire track history